createdAt,value
2018-06-13T00:01:21.303Z,94962.00
2018-06-13T00:03:52.429Z,94961.00
2018-06-13T00:06:23.590Z,94966.00
2018-06-13T00:08:54.736Z,94958.00
2018-06-13T00:11:26.300Z,94958.00
2018-06-13T00:13:57.547Z,94955.00
2018-06-13T00:16:29.002Z,94962.00
2018-06-13T00:19:00.088Z,94961.00
2018-06-13T00:21:31.299Z,94962.00
2018-06-13T00:24:02.342Z,94955.00
2018-06-13T00:26:33.521Z,94955.00
2018-06-13T00:29:04.489Z,94955.00
2018-06-13T00:31:35.561Z,94956.00
2018-06-13T00:34:06.631Z,94959.00
2018-06-13T00:36:37.620Z,94958.00
2018-06-13T00:39:08.647Z,94957.00
2018-06-13T00:41:39.541Z,94951.00
2018-06-13T00:44:10.426Z,94948.00
2018-06-13T00:46:41.462Z,94948.00
2018-06-13T00:49:12.346Z,94947.00
2018-06-13T00:51:43.402Z,94942.00
2018-06-13T00:54:14.509Z,94943.00
2018-06-13T00:56:45.588Z,94941.00
2018-06-13T00:59:16.555Z,94942.00
2018-06-13T01:01:47.899Z,94947.00
2018-06-13T01:04:18.912Z,94950.00
2018-06-13T01:06:50.137Z,94951.00
2018-06-13T01:09:21.294Z,94947.00
2018-06-13T01:11:52.351Z,94941.00
2018-06-13T01:14:23.428Z,94939.00
2018-06-13T01:16:54.458Z,94939.00
2018-06-13T01:19:25.495Z,94932.00
2018-06-13T01:21:56.541Z,94934.00
2018-06-13T01:24:27.732Z,94933.00
2018-06-13T01:26:59.004Z,94935.00
2018-06-13T01:29:30.011Z,94937.00
2018-06-13T01:32:01.112Z,94933.00
2018-06-13T01:34:32.129Z,94929.00
2018-06-13T01:37:03.560Z,94931.00
2018-06-13T01:39:34.596Z,94924.00
2018-06-13T01:42:05.772Z,94916.00
2018-06-13T01:44:36.709Z,94911.00
2018-06-13T01:47:07.726Z,94911.00
2018-06-13T01:49:38.684Z,94905.00
2018-06-13T01:52:09.708Z,94909.00
2018-06-13T01:54:40.668Z,94908.00
2018-06-13T01:57:11.647Z,94908.00
2018-06-13T01:59:42.619Z,94908.00
2018-06-13T02:02:13.606Z,94910.00
2018-06-13T02:04:44.458Z,94903.00
2018-06-13T02:07:15.422Z,94901.00
2018-06-13T02:09:46.429Z,94903.00
2018-06-13T02:12:17.484Z,94905.00
2018-06-13T02:14:48.828Z,94907.00
2018-06-13T02:17:19.930Z,94911.00
2018-06-13T02:19:50.990Z,94914.00
2018-06-13T02:22:22.431Z,94914.00
2018-06-13T02:24:53.433Z,94911.00
2018-06-13T02:27:24.377Z,94914.00
2018-06-13T02:29:55.377Z,94916.00
2018-06-13T02:32:26.264Z,94916.00
2018-06-13T02:34:57.317Z,94918.00
2018-06-13T02:37:28.666Z,94920.00
2018-06-13T02:40:00.010Z,94919.00
2018-06-13T02:42:31.375Z,94916.00
2018-06-13T02:45:02.377Z,94917.00
2018-06-13T02:47:33.586Z,94921.00
2018-06-13T02:50:04.541Z,94917.00
2018-06-13T02:52:35.636Z,94927.00
2018-06-13T02:55:06.727Z,94930.00
2018-06-13T02:57:37.695Z,94936.00
2018-06-13T03:00:08.836Z,94930.00
2018-06-13T03:02:39.807Z,94933.00
2018-06-13T03:05:10.714Z,94930.00
2018-06-13T03:07:41.805Z,94937.00
2018-06-13T03:10:12.791Z,94934.00
2018-06-13T03:12:43.851Z,94933.00
2018-06-13T03:15:14.878Z,94942.00
2018-06-13T03:17:46.064Z,94942.00
2018-06-13T03:20:16.949Z,94939.00
2018-06-13T03:22:47.976Z,94937.00
2018-06-13T03:25:18.971Z,94943.00
2018-06-13T03:27:49.877Z,94941.00
2018-06-13T03:30:20.908Z,94944.00
2018-06-13T03:32:51.946Z,94945.00
2018-06-13T03:35:22.920Z,94941.00
2018-06-13T03:37:54.308Z,94937.00
2018-06-13T03:40:25.349Z,94938.00
2018-06-13T03:42:56.536Z,94948.00
2018-06-13T03:45:27.539Z,94961.00
2018-06-13T03:47:58.938Z,94961.00
2018-06-13T03:50:29.969Z,94970.00
2018-06-13T03:53:01.474Z,94970.00
2018-06-13T03:55:32.501Z,94970.00
2018-06-13T03:58:03.559Z,94971.00
2018-06-13T04:00:34.668Z,94976.00
2018-06-13T04:03:05.677Z,94984.00
2018-06-13T04:05:36.952Z,94986.00
2018-06-13T04:08:07.913Z,94987.00
2018-06-13T04:10:38.906Z,94988.00
2018-06-13T04:13:09.915Z,94983.00
2018-06-13T04:15:40.917Z,94984.00
2018-06-13T04:18:12.054Z,94991.00
2018-06-13T04:20:43.059Z,94995.00
2018-06-13T04:23:14.492Z,94997.00
2018-06-13T04:25:45.457Z,94995.00
2018-06-13T04:28:16.794Z,94994.00
2018-06-13T04:30:47.740Z,94997.00
2018-06-13T04:33:18.736Z,95003.00
2018-06-13T04:35:49.743Z,95001.00
2018-06-13T04:38:20.856Z,94994.00
2018-06-13T04:40:51.804Z,94993.00
2018-06-13T04:43:24.561Z,95001.00
2018-06-13T04:45:55.559Z,94998.00
2018-06-13T04:48:26.630Z,94993.00
2018-06-13T04:50:57.629Z,94995.00
2018-06-13T04:53:28.728Z,95000.00
2018-06-13T04:55:59.761Z,94993.00
2018-06-13T04:58:30.861Z,94983.00
2018-06-13T05:01:01.841Z,94980.00
2018-06-13T05:03:33.025Z,94987.00
2018-06-13T05:06:03.963Z,94990.00
2018-06-13T05:08:44.541Z,94992.00
2018-06-13T05:11:16.046Z,95005.00
2018-06-13T05:13:48.421Z,94996.00
2018-06-13T05:16:19.415Z,95008.00
2018-06-13T05:18:50.449Z,95005.00
2018-06-13T05:21:21.402Z,95010.00
2018-06-13T05:23:52.527Z,95008.00
2018-06-13T05:26:23.452Z,95009.00
2018-06-13T05:28:54.438Z,95000.00
2018-06-13T05:31:25.578Z,94998.00
2018-06-13T05:33:56.516Z,94998.00
2018-06-13T05:36:27.476Z,95006.00
2018-06-13T05:38:58.593Z,95008.00
2018-06-13T05:41:29.635Z,95010.00
2018-06-13T05:44:00.674Z,95003.00
2018-06-13T05:46:31.921Z,95008.00
2018-06-13T05:49:03.137Z,95014.00
2018-06-13T05:51:34.145Z,95016.00
2018-06-13T05:54:05.410Z,95019.00
2018-06-13T05:56:39.462Z,95024.00
2018-06-13T05:59:11.471Z,95020.00
2018-06-13T06:01:42.380Z,95023.00
2018-06-13T06:04:13.245Z,95020.00
2018-06-13T06:06:44.772Z,95026.00
2018-06-13T06:09:15.669Z,95022.00
2018-06-13T06:11:48.208Z,95022.00
2018-06-13T06:14:19.363Z,95024.00
2018-06-13T06:16:50.548Z,95029.00
2018-06-13T06:19:21.520Z,95033.00
2018-06-13T06:21:52.562Z,95032.00
2018-06-13T06:24:23.564Z,95036.00
2018-06-13T06:26:54.575Z,95032.00
2018-06-13T06:29:25.577Z,95035.00
2018-06-13T06:31:56.525Z,95031.00
2018-06-13T06:34:27.967Z,95045.00
2018-06-13T06:36:58.943Z,95046.00
2018-06-13T06:39:30.100Z,95049.00
2018-06-13T06:42:01.135Z,95047.00
2018-06-13T06:44:32.240Z,95046.00
2018-06-13T06:47:03.218Z,95046.00
2018-06-13T06:49:34.312Z,95050.00
2018-06-13T06:52:05.323Z,95047.00
2018-06-13T06:54:36.273Z,95051.00
2018-06-13T06:57:07.229Z,95048.00
2018-06-13T06:59:38.192Z,95047.00
2018-06-13T07:02:09.160Z,95053.00
2018-06-13T07:04:40.268Z,95057.00
2018-06-13T07:07:11.310Z,95059.00
2018-06-13T07:09:42.309Z,95059.00
2018-06-13T07:12:13.287Z,95057.00
2018-06-13T07:14:44.309Z,95056.00
2018-06-13T07:17:15.315Z,95055.00
2018-06-13T07:19:46.240Z,95063.00
2018-06-13T07:22:17.280Z,95065.00
2018-06-13T07:24:48.371Z,95067.00
2018-06-13T07:27:19.770Z,95065.00
2018-06-13T07:29:50.779Z,95067.00
2018-06-13T07:32:21.799Z,95070.00
2018-06-13T07:34:52.892Z,95076.00
2018-06-13T07:37:23.935Z,95077.00
2018-06-13T07:39:54.882Z,95077.00
2018-06-13T07:42:25.912Z,95076.00
2018-06-13T07:44:56.912Z,95080.00
2018-06-13T07:47:28.054Z,95081.00
2018-06-13T07:50:00.032Z,95082.00
2018-06-13T07:52:31.129Z,95086.00
2018-06-13T07:55:02.066Z,95081.00
2018-06-13T07:57:33.142Z,95083.00
2018-06-13T08:00:05.087Z,95084.00
2018-06-13T08:02:37.506Z,95087.00
2018-06-13T08:05:08.511Z,95082.00
2018-06-13T08:07:39.554Z,95086.00
2018-06-13T08:10:10.521Z,95085.00
2018-06-13T08:12:41.583Z,95084.00
2018-06-13T08:15:13.891Z,95086.00
2018-06-13T08:17:44.977Z,95092.00
2018-06-13T08:20:16.558Z,95090.00
2018-06-13T08:22:47.677Z,95095.00
2018-06-13T08:25:18.679Z,95099.00
2018-06-13T08:27:52.019Z,95093.00
2018-06-13T08:30:23.965Z,95101.00
2018-06-13T08:32:55.188Z,95094.00
2018-06-13T08:35:26.502Z,95100.00
2018-06-13T08:37:57.921Z,95108.00
2018-06-13T08:40:29.280Z,95111.00
2018-06-13T08:43:02.307Z,95107.00
2018-06-13T08:45:33.515Z,95106.00
2018-06-13T08:48:04.868Z,95108.00
2018-06-13T08:50:36.136Z,95110.00
2018-06-13T08:53:11.608Z,95112.00
2018-06-13T08:55:43.106Z,95113.00
2018-06-13T08:58:16.185Z,95115.00
2018-06-13T09:00:48.823Z,95114.00
2018-06-13T09:03:20.238Z,95116.00
2018-06-13T09:05:51.369Z,95118.00
2018-06-13T09:08:22.432Z,95119.00
2018-06-13T09:10:53.357Z,95125.00
2018-06-13T09:13:24.256Z,95123.00
2018-06-13T09:15:55.225Z,95122.00
2018-06-13T09:18:26.298Z,95123.00
2018-06-13T09:20:57.292Z,95126.00
2018-06-13T09:23:28.669Z,95127.00
2018-06-13T09:25:59.752Z,95127.00
2018-06-13T09:28:31.323Z,95126.00
2018-06-13T09:31:02.420Z,95121.00
2018-06-13T09:33:34.018Z,95129.00
2018-06-13T09:36:05.058Z,95131.00
2018-06-13T09:38:36.249Z,95126.00
2018-06-13T09:41:07.228Z,95127.00
2018-06-13T09:43:38.287Z,95127.00
2018-06-13T09:46:12.297Z,95130.00
2018-06-13T09:48:45.693Z,95140.00
2018-06-13T09:51:16.961Z,95138.00
2018-06-13T09:53:48.317Z,95138.00
2018-06-13T09:56:19.368Z,95142.00
2018-06-13T09:58:55.472Z,95145.00
2018-06-13T10:01:31.606Z,95143.00
2018-06-13T10:04:02.659Z,95143.00
2018-06-13T10:06:33.601Z,95143.00
2018-06-13T10:09:05.261Z,95141.00
2018-06-13T10:11:36.311Z,95145.00
2018-06-13T10:14:07.190Z,95146.00
2018-06-13T10:16:38.105Z,95149.00
2018-06-13T10:19:11.752Z,95149.00
2018-06-13T10:21:46.680Z,95147.00
2018-06-13T10:24:18.527Z,95147.00
2018-06-13T10:26:49.717Z,95150.00
2018-06-13T10:29:20.674Z,95154.00
2018-06-13T10:31:51.748Z,95163.00
2018-06-13T10:34:22.768Z,95162.00
2018-06-13T10:36:53.763Z,95167.00
2018-06-13T10:39:24.748Z,95166.00
2018-06-13T10:41:55.779Z,95168.00
2018-06-13T10:44:26.966Z,95171.00
2018-06-13T10:46:58.103Z,95172.00
2018-06-13T10:49:37.203Z,95173.00
2018-06-13T10:52:08.603Z,95173.00
2018-06-13T10:54:40.580Z,95173.00
2018-06-13T10:57:12.631Z,95171.00
2018-06-13T10:59:51.390Z,95174.00
2018-06-13T11:02:23.759Z,95163.00
2018-06-13T11:05:17.108Z,95171.00
2018-06-13T11:07:48.896Z,95173.00
2018-06-13T11:10:20.069Z,95173.00
2018-06-13T11:12:51.082Z,95167.00
2018-06-13T11:15:22.121Z,95170.00
2018-06-13T11:17:59.742Z,95165.00
2018-06-13T11:20:31.839Z,95169.00
2018-06-13T11:23:07.603Z,95164.00
2018-06-13T11:25:41.317Z,95163.00
2018-06-13T11:28:12.997Z,95163.00
2018-06-13T11:30:44.587Z,95157.00
2018-06-13T11:33:15.820Z,95163.00
2018-06-13T11:35:46.786Z,95169.00
2018-06-13T11:38:17.733Z,95170.00
2018-06-13T11:40:48.937Z,95171.00
2018-06-13T11:43:19.972Z,95168.00
2018-06-13T11:45:56.684Z,95162.00
2018-06-13T11:48:28.343Z,95160.00
2018-06-13T11:50:59.353Z,95159.00
2018-06-13T11:53:30.756Z,95158.00
2018-06-13T11:56:01.761Z,95161.00
2018-06-13T11:58:33.578Z,95163.00
2018-06-13T12:01:04.618Z,95153.00
2018-06-13T12:03:36.499Z,95153.00
2018-06-13T12:06:07.476Z,95158.00
2018-06-13T12:08:38.947Z,95148.00
2018-06-13T12:11:10.084Z,95150.00
2018-06-13T12:13:41.426Z,95151.00
2018-06-13T12:16:13.543Z,95151.00
2018-06-13T12:18:46.450Z,95154.00
2018-06-13T12:21:17.522Z,95153.00
2018-06-13T12:23:48.560Z,95152.00
2018-06-13T12:26:19.609Z,95152.00
2018-06-13T12:28:50.886Z,95151.00
2018-06-13T12:31:22.174Z,95150.00
2018-06-13T12:33:53.576Z,95152.00
2018-06-13T12:36:25.748Z,95150.00
2018-06-13T12:38:56.902Z,95149.00
2018-06-13T12:41:28.098Z,95148.00
2018-06-13T12:43:59.020Z,95147.00
2018-06-13T12:46:30.150Z,95144.00
2018-06-13T12:49:01.305Z,95145.00
2018-06-13T12:51:32.356Z,95152.00
2018-06-13T12:54:03.841Z,95153.00
2018-06-13T12:56:34.945Z,95151.00
2018-06-13T12:59:06.064Z,95156.00
2018-06-13T13:01:37.147Z,95154.00
2018-06-13T13:04:08.192Z,95151.00
2018-06-13T13:06:43.704Z,95151.00
2018-06-13T13:09:14.877Z,95152.00
2018-06-13T13:11:45.987Z,95150.00
2018-06-13T13:14:16.924Z,95159.00
2018-06-13T13:16:48.268Z,95164.00
2018-06-13T13:19:19.424Z,95169.00
2018-06-13T13:21:50.424Z,95178.00
2018-06-13T13:24:21.482Z,95181.00
2018-06-13T13:26:52.477Z,95184.00
2018-06-13T13:29:23.559Z,95183.00
2018-06-13T13:31:54.620Z,95178.00
2018-06-13T13:34:25.787Z,95186.00
2018-06-13T13:36:56.957Z,95186.00
2018-06-13T13:39:28.177Z,95185.00
2018-06-13T13:41:58.993Z,95180.00
2018-06-13T13:44:30.252Z,95182.00
2018-06-13T13:47:41.981Z,95189.00
2018-06-13T13:50:17.636Z,95192.00
2018-06-13T13:53:05.987Z,95187.00
2018-06-13T13:55:38.851Z,95187.00
2018-06-13T13:58:09.784Z,95193.00
2018-06-13T14:00:40.797Z,95186.00
2018-06-13T14:03:12.213Z,95185.00
2018-06-13T14:05:43.164Z,95177.00
2018-06-13T14:08:14.114Z,95179.00
2018-06-13T14:10:45.132Z,95177.00
2018-06-13T14:13:16.192Z,95186.00
2018-06-13T14:15:48.469Z,95187.00
2018-06-13T14:18:19.436Z,95183.00
2018-06-13T14:20:50.626Z,95187.00
2018-06-13T14:23:21.740Z,95184.00
2018-06-13T14:25:52.957Z,95188.00
2018-06-13T14:28:24.054Z,95192.00
2018-06-13T14:30:55.008Z,95191.00
2018-06-13T14:33:25.888Z,95197.00
2018-06-13T14:35:57.458Z,95198.00
2018-06-13T14:38:28.427Z,95197.00
2018-06-13T14:40:59.624Z,95202.00
2018-06-13T14:43:30.591Z,95205.00
2018-06-13T14:46:01.782Z,95207.00
2018-06-13T14:48:32.730Z,95204.00
2018-06-13T14:51:04.456Z,95212.00
2018-06-13T14:53:35.637Z,95210.00
2018-06-13T14:56:12.475Z,95214.00
2018-06-13T14:58:43.861Z,95215.00
2018-06-13T15:01:15.009Z,95216.00
2018-06-13T15:03:46.316Z,95223.00
2018-06-13T15:06:17.497Z,95219.00
2018-06-13T15:08:48.474Z,95228.00
2018-06-13T15:11:19.718Z,95228.00
2018-06-13T15:13:50.659Z,95229.00
2018-06-13T15:16:21.754Z,95228.00
2018-06-13T15:18:52.685Z,95229.00
2018-06-13T15:21:23.982Z,95231.00
2018-06-13T15:23:55.785Z,95230.00
2018-06-13T15:26:27.349Z,95227.00
2018-06-13T15:29:03.947Z,95234.00
2018-06-13T15:31:35.858Z,95230.00
2018-06-13T15:34:07.353Z,95233.00
2018-06-13T15:36:38.417Z,95241.00
2018-06-13T15:39:12.531Z,95240.00
2018-06-13T15:41:44.223Z,95248.00
2018-06-13T15:44:15.390Z,95246.00
2018-06-13T15:46:46.473Z,95244.00
2018-06-13T15:49:17.746Z,95247.00
2018-06-13T15:51:48.660Z,95252.00
2018-06-13T15:54:23.811Z,95250.00
2018-06-13T15:56:59.176Z,95254.00
2018-06-13T15:59:33.228Z,95256.00
2018-06-13T16:02:04.550Z,95252.00
2018-06-13T16:04:35.798Z,95256.00
2018-06-13T16:07:06.742Z,95257.00
2018-06-13T16:09:38.033Z,95260.00
2018-06-13T16:12:09.094Z,95262.00
2018-06-13T16:14:41.021Z,95261.00
2018-06-13T16:17:13.812Z,95264.00
2018-06-13T16:23:01.693Z,95272.00
2018-06-13T16:25:40.392Z,95281.00
2018-06-13T16:28:17.327Z,95276.00
2018-06-13T16:30:49.474Z,95275.00
2018-06-13T16:33:20.674Z,95280.00
2018-06-13T16:35:51.726Z,95282.00
2018-06-13T16:38:22.800Z,95288.00
2018-06-13T16:40:53.905Z,95290.00
2018-06-13T16:43:24.918Z,95285.00
2018-06-13T16:45:55.873Z,95289.00
2018-06-13T16:48:26.840Z,95285.00
2018-06-13T16:51:08.643Z,95287.00
2018-06-13T16:53:54.084Z,95295.00
2018-06-13T16:56:25.094Z,95297.00
2018-06-13T16:58:56.192Z,95304.00
2018-06-13T17:01:27.353Z,95298.00
2018-06-13T17:03:58.433Z,95301.00
2018-06-13T17:06:29.469Z,95309.00
2018-06-13T17:09:00.548Z,95305.00
2018-06-13T17:11:31.578Z,95309.00
2018-06-13T17:14:02.740Z,95313.00
2018-06-13T17:16:33.765Z,95310.00
2018-06-13T17:19:04.729Z,95309.00
2018-06-13T17:21:35.837Z,95311.00
2018-06-13T17:24:06.763Z,95316.00
2018-06-13T17:26:37.813Z,95322.00
2018-06-13T17:29:08.703Z,95327.00
2018-06-13T17:31:40.625Z,95332.00
2018-06-13T17:34:11.662Z,95331.00
2018-06-13T17:36:44.033Z,95341.00
2018-06-13T17:39:19.610Z,95339.00
2018-06-13T17:41:51.879Z,95338.00
2018-06-13T17:44:22.780Z,95333.00
2018-06-13T17:46:53.817Z,95335.00
2018-06-13T17:49:25.754Z,95336.00
2018-06-13T17:51:56.793Z,95336.00
2018-06-13T17:54:28.466Z,95343.00
2018-06-13T17:56:59.619Z,95347.00
2018-06-13T17:59:30.575Z,95354.00
2018-06-13T18:02:01.612Z,95348.00
2018-06-13T18:04:32.525Z,95350.00
2018-06-13T18:07:03.864Z,95345.00
2018-06-13T18:09:34.899Z,95351.00
2018-06-13T18:12:06.513Z,95350.00
2018-06-13T18:14:37.449Z,95352.00
2018-06-13T18:17:08.461Z,95355.00
2018-06-13T18:19:39.382Z,95354.00
2018-06-13T18:22:10.440Z,95360.00
2018-06-13T18:24:42.302Z,95362.00
2018-06-13T18:27:13.364Z,95361.00
2018-06-13T18:29:44.509Z,95361.00
2018-06-13T18:32:16.473Z,95359.00
2018-06-13T18:34:47.810Z,95364.00
2018-06-13T18:37:19.530Z,95360.00
2018-06-13T18:39:51.033Z,95363.00
2018-06-13T18:42:22.486Z,95372.00
2018-06-13T18:44:53.708Z,95381.00
2018-06-13T18:47:25.135Z,95384.00
2018-06-13T18:49:57.098Z,95386.00
2018-06-13T18:52:28.302Z,95387.00
2018-06-13T18:54:59.317Z,95392.00
2018-06-13T18:57:30.719Z,95393.00
2018-06-13T19:00:01.645Z,95398.00
2018-06-13T19:02:33.128Z,95400.00
2018-06-13T19:05:04.408Z,95400.00
2018-06-13T19:07:35.524Z,95404.00
2018-06-13T19:10:06.441Z,95406.00
2018-06-13T19:12:37.515Z,95411.00
2018-06-13T19:15:08.435Z,95413.00
2018-06-13T19:17:39.345Z,95414.00
2018-06-13T19:20:10.416Z,95418.00
2018-06-13T19:22:41.385Z,95420.00
2018-06-13T19:25:12.382Z,95420.00
2018-06-13T19:27:43.392Z,95421.00
2018-06-13T19:30:14.456Z,95426.00
2018-06-13T19:32:45.414Z,95434.00
2018-06-13T19:35:16.782Z,95444.00
2018-06-13T19:37:47.717Z,95446.00
2018-06-13T19:40:18.744Z,95443.00
2018-06-13T19:42:49.783Z,95445.00
2018-06-13T19:45:20.913Z,95445.00
2018-06-13T19:47:56.991Z,95448.00
2018-06-13T19:50:28.062Z,95455.00
2018-06-13T19:53:04.944Z,95456.00
2018-06-13T19:55:41.200Z,95463.00
2018-06-13T19:58:12.130Z,95462.00
2018-06-13T20:00:43.110Z,95463.00
2018-06-13T20:03:19.396Z,95468.00
2018-06-13T20:05:50.478Z,95466.00
2018-06-13T20:08:21.466Z,95460.00
2018-06-13T20:10:52.458Z,95463.00
2018-06-13T20:13:28.463Z,95462.00
2018-06-13T20:16:04.513Z,95465.00
2018-06-13T20:18:40.582Z,95463.00
2018-06-13T20:21:12.334Z,95464.00
2018-06-13T20:23:44.233Z,95463.00
2018-06-13T20:26:20.765Z,95465.00
2018-06-13T20:28:56.931Z,95467.00
2018-06-13T20:31:31.567Z,95467.00
2018-06-13T20:34:03.017Z,95468.00
2018-06-13T20:36:34.180Z,95461.00
2018-06-13T20:39:07.185Z,95460.00
2018-06-13T20:41:39.764Z,95462.00
2018-06-13T20:44:13.314Z,95462.00
2018-06-13T20:46:45.551Z,95456.00
2018-06-13T20:49:18.266Z,95460.00
2018-06-13T20:51:51.029Z,95459.00
2018-06-13T20:54:23.628Z,95474.00
2018-06-13T20:56:55.759Z,95473.00
2018-06-13T20:59:28.274Z,95476.00
2018-06-13T21:02:00.571Z,95483.00
2018-06-13T21:04:31.757Z,95481.00
2018-06-13T21:07:03.003Z,95494.00
2018-06-13T21:09:34.045Z,95498.00
2018-06-13T21:12:05.110Z,95503.00
2018-06-13T21:14:36.138Z,95498.00
2018-06-13T21:17:07.462Z,95497.00
2018-06-13T21:19:38.540Z,95493.00
2018-06-13T21:22:10.033Z,95497.00
2018-06-13T21:24:42.381Z,95503.00
2018-06-13T21:27:13.854Z,95494.00
2018-06-13T21:29:44.880Z,95501.00
2018-06-13T21:32:16.037Z,95500.00
2018-06-13T21:34:47.103Z,95503.00
2018-06-13T21:37:18.157Z,95504.00
2018-06-13T21:39:49.142Z,95511.00
2018-06-13T21:42:20.187Z,95510.00
2018-06-13T21:44:51.230Z,95508.00
2018-06-13T21:47:22.269Z,95512.00
2018-06-13T21:49:53.256Z,95511.00
2018-06-13T21:52:24.201Z,95506.00
2018-06-13T21:54:55.236Z,95508.00
2018-06-13T21:57:26.312Z,95504.00
2018-06-13T21:59:57.242Z,95502.00
2018-06-13T22:02:28.238Z,95506.00
2018-06-13T22:04:59.377Z,95508.00
2018-06-13T22:07:31.308Z,95510.00
2018-06-13T22:10:02.339Z,95519.00
2018-06-13T22:12:33.481Z,95520.00
2018-06-13T22:15:04.468Z,95519.00
2018-06-13T22:17:35.679Z,95517.00
2018-06-13T22:20:06.546Z,95517.00
2018-06-13T22:22:38.361Z,95520.00
2018-06-13T22:25:09.405Z,95520.00
2018-06-13T22:27:40.688Z,95520.00
2018-06-13T22:30:11.826Z,95519.00
2018-06-13T22:32:43.213Z,95513.00
2018-06-13T22:35:14.143Z,95516.00
2018-06-13T22:37:45.344Z,95516.00
2018-06-13T22:40:16.206Z,95519.00
2018-06-13T22:42:47.156Z,95521.00
2018-06-13T22:45:18.104Z,95521.00
2018-06-13T22:47:49.181Z,95519.00
2018-06-13T22:50:20.534Z,95521.00
2018-06-13T22:52:51.862Z,95525.00
2018-06-13T22:55:22.711Z,95533.00
2018-06-13T22:57:53.591Z,95537.00
2018-06-13T23:01:30.774Z,95536.00
2018-06-13T23:04:01.776Z,95530.00
2018-06-13T23:06:32.721Z,95522.00
2018-06-13T23:09:04.976Z,95518.00
2018-06-13T23:11:35.995Z,95516.00
2018-06-13T23:14:07.014Z,95515.00
2018-06-13T23:16:37.987Z,95513.00
2018-06-13T23:19:09.304Z,95514.00
2018-06-13T23:21:45.057Z,95514.00
2018-06-13T23:24:18.013Z,95516.00
2018-06-13T23:26:49.348Z,95509.00
2018-06-13T23:29:20.388Z,95504.00
2018-06-13T23:31:51.498Z,95506.00
2018-06-13T23:34:22.442Z,95506.00
2018-06-13T23:36:53.465Z,95506.00
2018-06-13T23:39:24.414Z,95506.00
2018-06-13T23:41:56.273Z,95508.00
2018-06-13T23:44:27.312Z,95511.00
2018-06-13T23:46:58.325Z,95515.00
2018-06-13T23:49:29.503Z,95515.00
2018-06-13T23:52:00.381Z,95516.00
2018-06-13T23:54:31.491Z,95519.00
2018-06-13T23:57:02.503Z,95524.00
2018-06-13T23:59:33.553Z,95528.00
